Tecumseh, Missouri
Current Conditions -  °F | °C
As of 11:53 AM on Thursday 23 Oct 2014 (Local Time) from KBPK Reporting Station
Clear Clear  
Wind Chill: 57°   Ceiling: Unl
Heat Index: 57°   Visibility: 10mi
Dew Point: 46°   Wind: 6mph
Humidity: 67%   Direction: NA
Pressure: 30.2"   Gusts: NA
Location:  36.59°N, 92.29°W
Report Text: KBPK 231653Z AUTO VRB05KT 10SM CLR 14/08 A3020 RMK AO2 SLP226 T01390078
Loading
Personal Weather Stations






























Interactive Weather Map
Tropical Storm Tracking
New forecast layout! Learn more

10-Day Weather Forecast

Advertisements
Track Severe Weather on mobile